sensor_id;sensor_type;location;lat;lon;timestamp;P1;durP1;ratioP1;P2;durP2;ratioP2
38262;SDS011;24054;50.128;19.730;2024-02-23T00:02:16;1.92;;;1.27;;
38262;SDS011;24054;50.128;19.730;2024-02-23T00:04:44;2.22;;;1.33;;
38262;SDS011;24054;50.128;19.730;2024-02-23T00:07:13;2.25;;;1.50;;
38262;SDS011;24054;50.128;19.730;2024-02-23T00:09:40;1.35;;;1.17;;
38262;SDS011;24054;50.128;19.730;2024-02-23T00:12:07;1.00;;;1.00;;
38262;SDS011;24054;50.128;19.730;2024-02-23T00:14:34;1.17;;;0.98;;
38262;SDS011;24054;50.128;19.730;2024-02-23T00:17:03;2.42;;;1.33;;
38262;SDS011;24054;50.128;19.730;2024-02-23T00:19:30;1.58;;;1.17;;
38262;SDS011;24054;50.128;19.730;2024-02-23T00:21:58;1.60;;;1.15;;
38262;SDS011;24054;50.128;19.730;2024-02-23T00:24:27;2.13;;;1.20;;
38262;SDS011;24054;50.128;19.730;2024-02-23T00:29:21;2.15;;;1.00;;
38262;SDS011;24054;50.128;19.730;2024-02-23T00:31:48;1.20;;;1.08;;
38262;SDS011;24054;50.128;19.730;2024-02-23T00:34:16;1.90;;;0.93;;
38262;SDS011;24054;50.128;19.730;2024-02-23T00:36:43;3.25;;;1.15;;
38262;SDS011;24054;50.128;19.730;2024-02-23T00:39:10;3.83;;;1.33;;
38262;SDS011;24054;50.128;19.730;2024-02-23T00:41:39;1.38;;;0.95;;
38262;SDS011;24054;50.128;19.730;2024-02-23T00:44:06;1.40;;;1.13;;
38262;SDS011;24054;50.128;19.730;2024-02-23T00:46:33;1.27;;;1.10;;
38262;SDS011;24054;50.128;19.730;2024-02-23T00:49:00;2.30;;;1.20;;
38262;SDS011;24054;50.128;19.730;2024-02-23T00:51:27;2.10;;;1.00;;
38262;SDS011;24054;50.128;19.730;2024-02-23T00:53:55;1.77;;;1.02;;
38262;SDS011;24054;50.128;19.730;2024-02-23T00:56:22;3.03;;;1.17;;
38262;SDS011;24054;50.128;19.730;2024-02-23T00:58:51;1.33;;;0.98;;
38262;SDS011;24054;50.128;19.730;2024-02-23T01:01:20;1.20;;;1.10;;
38262;SDS011;24054;50.128;19.730;2024-02-23T01:06:14;1.48;;;0.95;;
38262;SDS011;24054;50.128;19.730;2024-02-23T01:08:42;1.20;;;0.90;;
38262;SDS011;24054;50.128;19.730;2024-02-23T01:11:09;1.83;;;1.20;;
38262;SDS011;24054;50.128;19.730;2024-02-23T01:13:36;2.40;;;1.10;;
38262;SDS011;24054;50.128;19.730;2024-02-23T01:16:05;1.45;;;1.05;;
38262;SDS011;24054;50.128;19.730;2024-02-23T01:18:33;1.35;;;1.00;;
38262;SDS011;24054;50.128;19.730;2024-02-23T01:21:00;0.70;;;0.70;;
38262;SDS011;24054;50.128;19.730;2024-02-23T01:23:28;1.10;;;1.00;;
38262;SDS011;24054;50.128;19.730;2024-02-23T01:25:55;1.63;;;1.13;;
38262;SDS011;24054;50.128;19.730;2024-02-23T01:28:23;2.63;;;1.08;;
38262;SDS011;24054;50.128;19.730;2024-02-23T01:30:51;1.52;;;1.20;;
38262;SDS011;24054;50.128;19.730;2024-02-23T01:33:19;2.30;;;1.10;;
38262;SDS011;24054;50.128;19.730;2024-02-23T01:35:47;2.67;;;1.02;;
38262;SDS011;24054;50.128;19.730;2024-02-23T01:38:16;1.23;;;0.90;;
38262;SDS011;24054;50.128;19.730;2024-02-23T01:40:46;1.13;;;0.90;;
38262;SDS011;24054;50.128;19.730;2024-02-23T01:43:13;1.38;;;0.95;;
38262;SDS011;24054;50.128;19.730;2024-02-23T01:45:40;1.15;;;1.00;;
38262;SDS011;24054;50.128;19.730;2024-02-23T01:48:07;1.10;;;1.00;;
38262;SDS011;24054;50.128;19.730;2024-02-23T01:50:36;1.88;;;0.95;;
38262;SDS011;24054;50.128;19.730;2024-02-23T01:53:04;1.33;;;1.00;;
38262;SDS011;24054;50.128;19.730;2024-02-23T01:55:31;0.95;;;0.73;;
38262;SDS011;24054;50.128;19.730;2024-02-23T01:57:59;1.33;;;0.80;;
38262;SDS011;24054;50.128;19.730;2024-02-23T02:00:27;1.58;;;0.98;;
38262;SDS011;24054;50.128;19.730;2024-02-23T02:02:55;1.00;;;0.90;;
38262;SDS011;24054;50.128;19.730;2024-02-23T02:05:23;1.10;;;1.00;;
38262;SDS011;24054;50.128;19.730;2024-02-23T02:07:53;1.95;;;0.88;;
38262;SDS011;24054;50.128;19.730;2024-02-23T02:10:24;1.77;;;0.90;;
38262;SDS011;24054;50.128;19.730;2024-02-23T02:12:52;2.58;;;0.90;;
38262;SDS011;24054;50.128;19.730;2024-02-23T02:15:20;0.90;;;0.80;;
38262;SDS011;24054;50.128;19.730;2024-02-23T02:17:48;1.20;;;1.00;;
38262;SDS011;24054;50.128;19.730;2024-02-23T02:20:15;1.05;;;0.80;;
38262;SDS011;24054;50.128;19.730;2024-02-23T02:22:45;1.02;;;0.90;;
38262;SDS011;24054;50.128;19.730;2024-02-23T02:25:15;1.27;;;1.10;;
38262;SDS011;24054;50.128;19.730;2024-02-23T02:27:43;1.00;;;0.63;;
38262;SDS011;24054;50.128;19.730;2024-02-23T02:30:11;1.05;;;0.85;;
38262;SDS011;24054;50.128;19.730;2024-02-23T02:32:39;1.77;;;0.90;;
38262;SDS011;24054;50.128;19.730;2024-02-23T02:35:06;1.45;;;1.00;;
38262;SDS011;24054;50.128;19.730;2024-02-23T02:37:34;1.60;;;1.13;;
38262;SDS011;24054;50.128;19.730;2024-02-23T02:40:01;0.90;;;0.90;;
38262;SDS011;24054;50.128;19.730;2024-02-23T02:42:32;1.15;;;0.93;;
38262;SDS011;24054;50.128;19.730;2024-02-23T02:45:00;1.92;;;1.17;;
38262;SDS011;24054;50.128;19.730;2024-02-23T02:47:28;1.42;;;0.93;;
38262;SDS011;24054;50.128;19.730;2024-02-23T02:49:55;0.70;;;0.70;;
38262;SDS011;24054;50.128;19.730;2024-02-23T02:52:23;1.25;;;0.80;;
38262;SDS011;24054;50.128;19.730;2024-02-23T02:54:50;2.30;;;0.80;;
38262;SDS011;24054;50.128;19.730;2024-02-23T02:57:18;1.85;;;1.00;;
38262;SDS011;24054;50.128;19.730;2024-02-23T02:59:46;1.40;;;0.95;;
38262;SDS011;24054;50.128;19.730;2024-02-23T03:02:15;0.82;;;0.77;;
38262;SDS011;24054;50.128;19.730;2024-02-23T03:04:46;1.15;;;1.05;;
38262;SDS011;24054;50.128;19.730;2024-02-23T03:07:13;1.40;;;1.00;;
38262;SDS011;24054;50.128;19.730;2024-02-23T03:09:40;1.05;;;0.98;;
38262;SDS011;24054;50.128;19.730;2024-02-23T03:12:08;0.98;;;0.90;;
38262;SDS011;24054;50.128;19.730;2024-02-23T03:14:35;1.08;;;0.90;;
38262;SDS011;24054;50.128;19.730;2024-02-23T03:17:04;0.93;;;0.80;;
38262;SDS011;24054;50.128;19.730;2024-02-23T03:19:31;1.50;;;0.98;;
38262;SDS011;24054;50.128;19.730;2024-02-23T03:21:58;1.13;;;0.85;;
38262;SDS011;24054;50.128;19.730;2024-02-23T03:24:25;1.20;;;1.10;;
38262;SDS011;24054;50.128;19.730;2024-02-23T03:26:52;1.23;;;1.00;;
38262;SDS011;24054;50.128;19.730;2024-02-23T03:29:20;1.52;;;1.00;;
38262;SDS011;24054;50.128;19.730;2024-02-23T03:31:49;0.80;;;0.80;;
38262;SDS011;24054;50.128;19.730;2024-02-23T03:34:19;1.10;;;1.00;;
38262;SDS011;24054;50.128;19.730;2024-02-23T03:36:46;1.33;;;0.80;;
38262;SDS011;24054;50.128;19.730;2024-02-23T03:39:14;2.08;;;1.05;;
38262;SDS011;24054;50.128;19.730;2024-02-23T03:41:41;0.80;;;0.80;;
38262;SDS011;24054;50.128;19.730;2024-02-23T03:44:08;0.85;;;0.82;;
38262;SDS011;24054;50.128;19.730;2024-02-23T03:46:35;0.70;;;0.70;;
38262;SDS011;24054;50.128;19.730;2024-02-23T03:49:03;0.98;;;0.82;;
38262;SDS011;24054;50.128;19.730;2024-02-23T03:51:31;0.80;;;0.80;;
38262;SDS011;24054;50.128;19.730;2024-02-23T03:54:00;0.98;;;0.80;;
38262;SDS011;24054;50.128;19.730;2024-02-23T03:56:27;1.30;;;1.20;;
38262;SDS011;24054;50.128;19.730;2024-02-23T03:58:54;1.08;;;0.98;;
38262;SDS011;24054;50.128;19.730;2024-02-23T04:01:21;2.13;;;1.17;;
38262;SDS011;24054;50.128;19.730;2024-02-23T04:03:49;1.20;;;1.00;;
38262;SDS011;24054;50.128;19.730;2024-02-23T04:06:16;1.10;;;1.00;;
38262;SDS011;24054;50.128;19.730;2024-02-23T04:08:45;1.10;;;1.00;;
38262;SDS011;24054;50.128;19.730;2024-02-23T04:13:40;1.33;;;1.02;;
38262;SDS011;24054;50.128;19.730;2024-02-23T04:16:07;1.05;;;0.80;;
38262;SDS011;24054;50.128;19.730;2024-02-23T04:18:34;2.03;;;1.15;;
38262;SDS011;24054;50.128;19.730;2024-02-23T04:21:02;1.77;;;1.10;;
38262;SDS011;24054;50.128;19.730;2024-02-23T04:23:29;0.90;;;0.80;;
38262;SDS011;24054;50.128;19.730;2024-02-23T04:25:58;2.35;;;1.10;;
38262;SDS011;24054;50.128;19.730;2024-02-23T04:28:25;1.40;;;1.10;;
38262;SDS011;24054;50.128;19.730;2024-02-23T04:30:56;1.40;;;0.90;;
38262;SDS011;24054;50.128;19.730;2024-02-23T04:33:23;1.42;;;1.13;;
38262;SDS011;24054;50.128;19.730;2024-02-23T04:35:50;1.05;;;0.93;;
38262;SDS011;24054;50.128;19.730;2024-02-23T04:38:17;1.45;;;1.08;;
38262;SDS011;24054;50.128;19.730;2024-02-23T04:40:44;1.27;;;1.02;;
38262;SDS011;24054;50.128;19.730;2024-02-23T04:43:13;1.27;;;1.17;;
38262;SDS011;24054;50.128;19.730;2024-02-23T04:45:40;1.08;;;0.98;;
38262;SDS011;24054;50.128;19.730;2024-02-23T04:48:07;1.30;;;1.10;;
38262;SDS011;24054;50.128;19.730;2024-02-23T04:50:34;1.30;;;1.17;;
38262;SDS011;24054;50.128;19.730;2024-02-23T04:53:02;1.13;;;1.02;;
38262;SDS011;24054;50.128;19.730;2024-02-23T04:55:29;1.70;;;1.40;;
38262;SDS011;24054;50.128;19.730;2024-02-23T04:57:57;1.15;;;0.90;;
38262;SDS011;24054;50.128;19.730;2024-02-23T05:00:25;1.00;;;0.90;;
38262;SDS011;24054;50.128;19.730;2024-02-23T05:02:58;1.17;;;0.95;;
38262;SDS011;24054;50.128;19.730;2024-02-23T05:05:28;1.40;;;1.20;;
38262;SDS011;24054;50.128;19.730;2024-02-23T05:07:55;1.33;;;1.10;;
38262;SDS011;24054;50.128;19.730;2024-02-23T05:10:22;1.33;;;1.00;;
38262;SDS011;24054;50.128;19.730;2024-02-23T05:12:49;1.10;;;1.00;;
38262;SDS011;24054;50.128;19.730;2024-02-23T05:15:17;2.92;;;1.33;;
38262;SDS011;24054;50.128;19.730;2024-02-23T05:17:45;1.30;;;1.20;;
38262;SDS011;24054;50.128;19.730;2024-02-23T05:20:13;2.25;;;1.50;;
38262;SDS011;24054;50.128;19.730;2024-02-23T05:22:41;1.48;;;1.30;;
38262;SDS011;24054;50.128;19.730;2024-02-23T05:25:08;1.33;;;1.23;;
38262;SDS011;24054;50.128;19.730;2024-02-23T05:27:35;1.50;;;1.40;;
38262;SDS011;24054;50.128;19.730;2024-02-23T05:30:03;1.23;;;1.13;;
38262;SDS011;24054;50.128;19.730;2024-02-23T05:32:31;1.92;;;1.33;;
38262;SDS011;24054;50.128;19.730;2024-02-23T05:35:00;1.42;;;1.33;;
38262;SDS011;24054;50.128;19.730;2024-02-23T05:37:28;1.83;;;1.33;;
38262;SDS011;24054;50.128;19.730;2024-02-23T05:39:55;2.00;;;1.50;;
38262;SDS011;24054;50.128;19.730;2024-02-23T05:42:24;2.22;;;1.60;;
38262;SDS011;24054;50.128;19.730;2024-02-23T05:44:52;1.85;;;1.30;;
38262;SDS011;24054;50.128;19.730;2024-02-23T05:47:19;2.17;;;1.45;;
38262;SDS011;24054;50.128;19.730;2024-02-23T05:49:46;1.67;;;1.58;;
38262;SDS011;24054;50.128;19.730;2024-02-23T05:52:15;1.80;;;1.30;;
38262;SDS011;24054;50.128;19.730;2024-02-23T05:54:42;1.70;;;1.60;;
38262;SDS011;24054;50.128;19.730;2024-02-23T05:57:09;1.90;;;1.40;;
38262;SDS011;24054;50.128;19.730;2024-02-23T05:59:36;1.73;;;1.38;;
38262;SDS011;24054;50.128;19.730;2024-02-23T06:02:04;1.65;;;1.50;;
38262;SDS011;24054;50.128;19.730;2024-02-23T06:04:31;2.45;;;1.73;;
38262;SDS011;24054;50.128;19.730;2024-02-23T06:06:58;3.03;;;1.75;;
38262;SDS011;24054;50.128;19.730;2024-02-23T06:09:26;2.83;;;1.85;;
38262;SDS011;24054;50.128;19.730;2024-02-23T06:11:54;2.08;;;1.77;;
38262;SDS011;24054;50.128;19.730;2024-02-23T06:14:21;1.85;;;1.60;;
38262;SDS011;24054;50.128;19.730;2024-02-23T06:16:48;3.00;;;1.95;;
38262;SDS011;24054;50.128;19.730;2024-02-23T06:19:15;2.88;;;2.33;;
38262;SDS011;24054;50.128;19.730;2024-02-23T06:21:42;3.33;;;2.17;;
38262;SDS011;24054;50.128;19.730;2024-02-23T06:24:13;3.38;;;2.25;;
38262;SDS011;24054;50.128;19.730;2024-02-23T06:26:42;3.30;;;2.40;;
38262;SDS011;24054;50.128;19.730;2024-02-23T06:29:10;2.53;;;2.25;;
38262;SDS011;24054;50.128;19.730;2024-02-23T06:31:38;3.33;;;2.30;;
38262;SDS011;24054;50.128;19.730;2024-02-23T06:34:06;3.38;;;2.35;;
38262;SDS011;24054;50.128;19.730;2024-02-23T06:36:34;3.40;;;2.30;;
38262;SDS011;24054;50.128;19.730;2024-02-23T06:39:01;3.25;;;2.35;;
38262;SDS011;24054;50.128;19.730;2024-02-23T06:41:28;2.72;;;2.08;;
38262;SDS011;24054;50.128;19.730;2024-02-23T06:43:57;3.55;;;2.40;;
38262;SDS011;24054;50.128;19.730;2024-02-23T06:48:51;2.53;;;2.28;;
38262;SDS011;24054;50.128;19.730;2024-02-23T06:51:18;3.53;;;2.63;;
38262;SDS011;24054;50.128;19.730;2024-02-23T06:53:46;3.30;;;2.30;;
38262;SDS011;24054;50.128;19.730;2024-02-23T06:56:13;4.15;;;3.25;;
38262;SDS011;24054;50.128;19.730;2024-02-23T06:58:41;2.75;;;2.30;;
38262;SDS011;24054;50.128;19.730;2024-02-23T07:01:09;3.47;;;2.45;;
38262;SDS011;24054;50.128;19.730;2024-02-23T07:03:38;3.40;;;2.63;;
38262;SDS011;24054;50.128;19.730;2024-02-23T07:06:06;3.63;;;2.60;;
38262;SDS011;24054;50.128;19.730;2024-02-23T07:08:35;3.00;;;2.58;;
38262;SDS011;24054;50.128;19.730;2024-02-23T07:11:02;3.83;;;2.67;;
38262;SDS011;24054;50.128;19.730;2024-02-23T07:13:31;4.15;;;2.60;;
38262;SDS011;24054;50.128;19.730;2024-02-23T07:15:59;3.65;;;2.60;;
38262;SDS011;24054;50.128;19.730;2024-02-23T07:18:28;5.05;;;2.83;;
38262;SDS011;24054;50.128;19.730;2024-02-23T07:20:55;3.22;;;2.72;;
38262;SDS011;24054;50.128;19.730;2024-02-23T07:23:23;3.65;;;2.90;;
38262;SDS011;24054;50.128;19.730;2024-02-23T07:25:50;3.58;;;2.90;;
38262;SDS011;24054;50.128;19.730;2024-02-23T07:28:18;4.50;;;3.20;;
38262;SDS011;24054;50.128;19.730;2024-02-23T07:30:47;3.78;;;3.10;;
38262;SDS011;24054;50.128;19.730;2024-02-23T07:33:14;4.50;;;3.35;;
38262;SDS011;24054;50.128;19.730;2024-02-23T07:35:43;5.43;;;3.17;;
38262;SDS011;24054;50.128;19.730;2024-02-23T07:38:10;4.28;;;3.28;;
38262;SDS011;24054;50.128;19.730;2024-02-23T07:40:37;9.45;;;3.70;;
38262;SDS011;24054;50.128;19.730;2024-02-23T07:43:04;7.22;;;3.55;;
38262;SDS011;24054;50.128;19.730;2024-02-23T07:45:31;8.40;;;4.05;;
38262;SDS011;24054;50.128;19.730;2024-02-23T07:48:00;9.25;;;3.75;;
38262;SDS011;24054;50.128;19.730;2024-02-23T07:50:27;9.20;;;4.78;;
38262;SDS011;24054;50.128;19.730;2024-02-23T07:52:56;7.53;;;3.78;;
38262;SDS011;24054;50.128;19.730;2024-02-23T07:55:23;9.93;;;4.35;;
38262;SDS011;24054;50.128;19.730;2024-02-23T07:57:50;8.75;;;4.18;;
38262;SDS011;24054;50.128;19.730;2024-02-23T08:00:17;8.38;;;4.13;;
38262;SDS011;24054;50.128;19.730;2024-02-23T08:02:45;12.37;;;4.47;;
38262;SDS011;24054;50.128;19.730;2024-02-23T08:05:12;10.30;;;4.13;;
38262;SDS011;24054;50.128;19.730;2024-02-23T08:07:39;9.48;;;4.53;;
38262;SDS011;24054;50.128;19.730;2024-02-23T08:10:08;10.18;;;4.10;;
38262;SDS011;24054;50.128;19.730;2024-02-23T08:12:38;9.65;;;4.05;;
38262;SDS011;24054;50.128;19.730;2024-02-23T08:15:05;10.68;;;4.43;;
38262;SDS011;24054;50.128;19.730;2024-02-23T08:17:33;9.60;;;4.40;;
38262;SDS011;24054;50.128;19.730;2024-02-23T08:20:00;11.32;;;4.38;;
38262;SDS011;24054;50.128;19.730;2024-02-23T08:22:27;9.00;;;3.97;;
38262;SDS011;24054;50.128;19.730;2024-02-23T08:24:54;12.32;;;4.00;;
38262;SDS011;24054;50.128;19.730;2024-02-23T08:27:23;10.57;;;4.20;;
38262;SDS011;24054;50.128;19.730;2024-02-23T08:29:50;9.18;;;3.45;;
38262;SDS011;24054;50.128;19.730;2024-02-23T08:32:17;8.70;;;3.78;;
38262;SDS011;24054;50.128;19.730;2024-02-23T08:34:44;10.73;;;4.35;;
38262;SDS011;24054;50.128;19.730;2024-02-23T08:37:12;13.18;;;4.50;;
38262;SDS011;24054;50.128;19.730;2024-02-23T08:39:39;7.05;;;3.85;;
38262;SDS011;24054;50.128;19.730;2024-02-23T08:42:06;6.45;;;3.63;;
38262;SDS011;24054;50.128;19.730;2024-02-23T08:44:34;8.57;;;4.18;;
38262;SDS011;24054;50.128;19.730;2024-02-23T08:47:04;10.57;;;3.45;;
38262;SDS011;24054;50.128;19.730;2024-02-23T08:49:32;6.80;;;3.38;;
38262;SDS011;24054;50.128;19.730;2024-02-23T08:51:59;9.50;;;3.97;;
38262;SDS011;24054;50.128;19.730;2024-02-23T08:54:27;10.68;;;3.47;;
38262;SDS011;24054;50.128;19.730;2024-02-23T08:56:54;9.32;;;4.32;;
38262;SDS011;24054;50.128;19.730;2024-02-23T08:59:22;7.80;;;3.83;;
38262;SDS011;24054;50.128;19.730;2024-02-23T09:01:50;6.93;;;3.63;;
38262;SDS011;24054;50.128;19.730;2024-02-23T09:04:17;6.60;;;4.10;;
38262;SDS011;24054;50.128;19.730;2024-02-23T09:06:45;6.10;;;3.42;;
38262;SDS011;24054;50.128;19.730;2024-02-23T09:09:12;7.18;;;3.38;;
38262;SDS011;24054;50.128;19.730;2024-02-23T09:11:39;7.75;;;3.53;;
38262;SDS011;24054;50.128;19.730;2024-02-23T09:14:06;7.10;;;3.65;;
38262;SDS011;24054;50.128;19.730;2024-02-23T09:16:33;9.27;;;3.80;;
38262;SDS011;24054;50.128;19.730;2024-02-23T09:19:01;6.70;;;3.50;;
38262;SDS011;24054;50.128;19.730;2024-02-23T09:21:28;9.10;;;3.65;;
38262;SDS011;24054;50.128;19.730;2024-02-23T09:23:55;6.63;;;3.50;;
38262;SDS011;24054;50.128;19.730;2024-02-23T09:26:22;7.03;;;3.47;;
38262;SDS011;24054;50.128;19.730;2024-02-23T09:28:50;6.53;;;3.38;;
38262;SDS011;24054;50.128;19.730;2024-02-23T09:31:17;10.90;;;4.32;;
38262;SDS011;24054;50.128;19.730;2024-02-23T09:33:45;7.10;;;4.00;;
38262;SDS011;24054;50.128;19.730;2024-02-23T09:36:16;8.32;;;3.47;;
38262;SDS011;24054;50.128;19.730;2024-02-23T09:41:11;5.97;;;3.35;;
38262;SDS011;24054;50.128;19.730;2024-02-23T09:43:45;6.65;;;3.60;;
38262;SDS011;24054;50.128;19.730;2024-02-23T09:46:13;7.97;;;3.27;;
38262;SDS011;24054;50.128;19.730;2024-02-23T09:48:40;8.65;;;3.53;;
38262;SDS011;24054;50.128;19.730;2024-02-23T09:51:08;6.72;;;2.97;;
38262;SDS011;24054;50.128;19.730;2024-02-23T09:53:39;9.85;;;4.57;;
38262;SDS011;24054;50.128;19.730;2024-02-23T09:56:06;7.70;;;3.50;;
38262;SDS011;24054;50.128;19.730;2024-02-23T10:01:02;8.55;;;3.83;;
38262;SDS011;24054;50.128;19.730;2024-02-23T10:03:29;9.57;;;3.33;;
38262;SDS011;24054;50.128;19.730;2024-02-23T10:05:57;7.00;;;3.38;;
38262;SDS011;24054;50.128;19.730;2024-02-23T10:08:26;5.38;;;2.80;;
38262;SDS011;24054;50.128;19.730;2024-02-23T10:10:55;6.07;;;3.20;;
38262;SDS011;24054;50.128;19.730;2024-02-23T10:13:23;6.15;;;3.40;;
38262;SDS011;24054;50.128;19.730;2024-02-23T10:15:50;8.60;;;3.20;;
38262;SDS011;24054;50.128;19.730;2024-02-23T10:18:17;5.70;;;2.95;;
38262;SDS011;24054;50.128;19.730;2024-02-23T10:20:44;4.65;;;3.00;;
38262;SDS011;24054;50.128;19.730;2024-02-23T10:23:12;6.40;;;3.08;;
38262;SDS011;24054;50.128;19.730;2024-02-23T10:25:39;4.68;;;2.85;;
38262;SDS011;24054;50.128;19.730;2024-02-23T10:28:08;6.10;;;2.65;;
38262;SDS011;24054;50.128;19.730;2024-02-23T10:30:36;8.20;;;2.90;;
38262;SDS011;24054;50.128;19.730;2024-02-23T10:33:04;7.70;;;2.80;;
38262;SDS011;24054;50.128;19.730;2024-02-23T10:35:32;16.48;;;3.45;;
38262;SDS011;24054;50.128;19.730;2024-02-23T10:38:03;5.93;;;2.60;;
38262;SDS011;24054;50.128;19.730;2024-02-23T10:40:34;5.00;;;2.67;;
38262;SDS011;24054;50.128;19.730;2024-02-23T10:43:06;4.35;;;2.70;;
38262;SDS011;24054;50.128;19.730;2024-02-23T10:45:38;6.10;;;3.03;;
38262;SDS011;24054;50.128;19.730;2024-02-23T10:48:07;8.38;;;2.75;;
38262;SDS011;24054;50.128;19.730;2024-02-23T10:50:35;5.75;;;2.50;;
38262;SDS011;24054;50.128;19.730;2024-02-23T10:53:04;5.70;;;2.47;;
38262;SDS011;24054;50.128;19.730;2024-02-23T10:55:34;6.28;;;2.47;;
38262;SDS011;24054;50.128;19.730;2024-02-23T10:58:03;6.35;;;2.67;;
38262;SDS011;24054;50.128;19.730;2024-02-23T11:00:35;3.78;;;2.50;;
38262;SDS011;24054;50.128;19.730;2024-02-23T11:03:03;6.03;;;2.70;;
38262;SDS011;24054;50.128;19.730;2024-02-23T11:05:31;7.63;;;2.55;;
38262;SDS011;24054;50.128;19.730;2024-02-23T11:07:59;4.05;;;2.22;;
38262;SDS011;24054;50.128;19.730;2024-02-23T11:10:27;3.97;;;2.08;;
38262;SDS011;24054;50.128;19.730;2024-02-23T11:12:57;4.65;;;2.42;;
38262;SDS011;24054;50.128;19.730;2024-02-23T11:15:28;13.85;;;2.03;;
38262;SDS011;24054;50.128;19.730;2024-02-23T11:18:00;3.47;;;2.00;;
38262;SDS011;24054;50.128;19.730;2024-02-23T11:20:34;3.95;;;1.73;;
38262;SDS011;24054;50.128;19.730;2024-02-23T11:23:01;5.55;;;2.03;;
38262;SDS011;24054;50.128;19.730;2024-02-23T11:25:29;2.97;;;1.92;;
38262;SDS011;24054;50.128;19.730;2024-02-23T11:27:59;10.15;;;2.53;;
38262;SDS011;24054;50.128;19.730;2024-02-23T11:30:26;7.20;;;2.35;;
38262;SDS011;24054;50.128;19.730;2024-02-23T11:32:57;7.85;;;2.75;;
38262;SDS011;24054;50.128;19.730;2024-02-23T11:35:27;8.35;;;1.90;;
38262;SDS011;24054;50.128;19.730;2024-02-23T11:37:55;3.03;;;2.00;;
38262;SDS011;24054;50.128;19.730;2024-02-23T11:40:25;6.57;;;2.45;;
38262;SDS011;24054;50.128;19.730;2024-02-23T11:42:54;6.53;;;1.80;;
38262;SDS011;24054;50.128;19.730;2024-02-23T11:45:21;3.42;;;2.10;;
38262;SDS011;24054;50.128;19.730;2024-02-23T11:47:48;3.35;;;1.90;;
38262;SDS011;24054;50.128;19.730;2024-02-23T11:50:17;4.47;;;1.80;;
38262;SDS011;24054;50.128;19.730;2024-02-23T11:52:45;6.65;;;1.98;;
38262;SDS011;24054;50.128;19.730;2024-02-23T11:55:13;3.72;;;1.63;;
38262;SDS011;24054;50.128;19.730;2024-02-23T11:57:47;3.95;;;1.83;;
38262;SDS011;24054;50.128;19.730;2024-02-23T12:00:14;5.35;;;1.77;;
38262;SDS011;24054;50.128;19.730;2024-02-23T12:02:43;3.58;;;2.00;;
38262;SDS011;24054;50.128;19.730;2024-02-23T12:05:10;3.17;;;1.52;;
38262;SDS011;24054;50.128;19.730;2024-02-23T12:07:39;3.90;;;1.98;;
38262;SDS011;24054;50.128;19.730;2024-02-23T12:10:07;6.35;;;1.75;;
38262;SDS011;24054;50.128;19.730;2024-02-23T12:12:36;3.65;;;1.80;;
38262;SDS011;24054;50.128;19.730;2024-02-23T12:15:03;4.03;;;1.70;;
38262;SDS011;24054;50.128;19.730;2024-02-23T12:17:35;8.38;;;1.88;;
38262;SDS011;24054;50.128;19.730;2024-02-23T12:20:02;4.22;;;1.52;;
38262;SDS011;24054;50.128;19.730;2024-02-23T12:22:30;4.38;;;1.80;;
38262;SDS011;24054;50.128;19.730;2024-02-23T12:24:58;2.92;;;1.23;;
38262;SDS011;24054;50.128;19.730;2024-02-23T12:27:28;3.13;;;1.60;;
38262;SDS011;24054;50.128;19.730;2024-02-23T12:29:55;2.90;;;1.50;;
38262;SDS011;24054;50.128;19.730;2024-02-23T12:32:24;2.33;;;1.50;;
38262;SDS011;24054;50.128;19.730;2024-02-23T12:34:52;2.53;;;1.23;;
38262;SDS011;24054;50.128;19.730;2024-02-23T12:37:19;4.13;;;1.60;;
38262;SDS011;24054;50.128;19.730;2024-02-23T12:39:47;3.85;;;1.45;;
38262;SDS011;24054;50.128;19.730;2024-02-23T12:42:16;3.28;;;1.40;;
38262;SDS011;24054;50.128;19.730;2024-02-23T12:44:44;2.30;;;1.42;;
38262;SDS011;24054;50.128;19.730;2024-02-23T12:47:12;3.83;;;1.45;;
38262;SDS011;24054;50.128;19.730;2024-02-23T12:49:39;2.47;;;1.45;;
38262;SDS011;24054;50.128;19.730;2024-02-23T12:52:06;10.82;;;1.65;;
38262;SDS011;24054;50.128;19.730;2024-02-23T12:54:33;1.60;;;1.30;;
38262;SDS011;24054;50.128;19.730;2024-02-23T12:57:00;2.33;;;1.10;;
38262;SDS011;24054;50.128;19.730;2024-02-23T12:59:29;1.70;;;1.25;;
38262;SDS011;24054;50.128;19.730;2024-02-23T13:01:56;4.25;;;1.20;;
38262;SDS011;24054;50.128;19.730;2024-02-23T13:04:23;3.28;;;1.40;;
38262;SDS011;24054;50.128;19.730;2024-02-23T13:06:50;2.92;;;1.30;;
38262;SDS011;24054;50.128;19.730;2024-02-23T13:09:19;2.45;;;1.27;;
38262;SDS011;24054;50.128;19.730;2024-02-23T13:11:46;2.88;;;1.42;;
38262;SDS011;24054;50.128;19.730;2024-02-23T13:14:14;2.15;;;1.30;;
38262;SDS011;24054;50.128;19.730;2024-02-23T13:16:42;3.05;;;1.27;;
38262;SDS011;24054;50.128;19.730;2024-02-23T13:19:10;2.03;;;1.13;;
38262;SDS011;24054;50.128;19.730;2024-02-23T13:21:37;2.47;;;1.15;;
38262;SDS011;24054;50.128;19.730;2024-02-23T13:24:05;3.33;;;1.23;;
38262;SDS011;24054;50.128;19.730;2024-02-23T13:26:31;2.05;;;1.08;;
38262;SDS011;24054;50.128;19.730;2024-02-23T13:28:59;1.90;;;1.05;;
38262;SDS011;24054;50.128;19.730;2024-02-23T13:31:26;2.25;;;1.15;;
38262;SDS011;24054;50.128;19.730;2024-02-23T13:33:55;1.52;;;1.10;;
38262;SDS011;24054;50.128;19.730;2024-02-23T13:36:22;1.80;;;1.35;;
38262;SDS011;24054;50.128;19.730;2024-02-23T13:38:50;4.07;;;1.40;;
38262;SDS011;24054;50.128;19.730;2024-02-23T13:41:17;3.03;;;1.30;;
38262;SDS011;24054;50.128;19.730;2024-02-23T13:43:44;2.42;;;1.38;;
38262;SDS011;24054;50.128;19.730;2024-02-23T13:46:11;2.63;;;1.30;;
38262;SDS011;24054;50.128;19.730;2024-02-23T13:48:39;1.50;;;1.10;;
38262;SDS011;24054;50.128;19.730;2024-02-23T13:51:07;1.27;;;1.10;;
38262;SDS011;24054;50.128;19.730;2024-02-23T13:53:34;1.65;;;1.10;;
38262;SDS011;24054;50.128;19.730;2024-02-23T13:56:02;6.83;;;1.43;;
38262;SDS011;24054;50.128;19.730;2024-02-23T13:58:29;2.80;;;1.38;;
38262;SDS011;24054;50.128;19.730;2024-02-23T14:00:57;2.13;;;1.30;;
38262;SDS011;24054;50.128;19.730;2024-02-23T14:03:25;4.63;;;1.60;;
38262;SDS011;24054;50.128;19.730;2024-02-23T14:05:52;2.47;;;1.45;;
38262;SDS011;24054;50.128;19.730;2024-02-23T14:08:20;5.80;;;1.63;;
38262;SDS011;24054;50.128;19.730;2024-02-23T14:10:47;4.25;;;1.50;;
38262;SDS011;24054;50.128;19.730;2024-02-23T14:13:14;2.85;;;1.65;;
38262;SDS011;24054;50.128;19.730;2024-02-23T14:15:42;3.80;;;1.27;;
38262;SDS011;24054;50.128;19.730;2024-02-23T14:18:10;4.60;;;1.83;;
38262;SDS011;24054;50.128;19.730;2024-02-23T14:20:37;4.72;;;2.10;;
38262;SDS011;24054;50.128;19.730;2024-02-23T14:23:05;2.53;;;1.40;;
38262;SDS011;24054;50.128;19.730;2024-02-23T14:25:34;3.83;;;1.40;;
38262;SDS011;24054;50.128;19.730;2024-02-23T14:28:01;4.88;;;1.63;;
38262;SDS011;24054;50.128;19.730;2024-02-23T14:30:29;2.78;;;1.50;;
38262;SDS011;24054;50.128;19.730;2024-02-23T14:32:56;2.80;;;1.20;;
38262;SDS011;24054;50.128;19.730;2024-02-23T14:35:23;3.05;;;1.42;;
38262;SDS011;24054;50.128;19.730;2024-02-23T14:37:50;2.63;;;1.23;;
38262;SDS011;24054;50.128;19.730;2024-02-23T14:40:17;2.83;;;1.40;;
38262;SDS011;24054;50.128;19.730;2024-02-23T14:42:45;1.88;;;1.27;;
38262;SDS011;24054;50.128;19.730;2024-02-23T14:45:13;2.45;;;1.50;;
38262;SDS011;24054;50.128;19.730;2024-02-23T14:47:41;3.33;;;1.42;;
38262;SDS011;24054;50.128;19.730;2024-02-23T14:50:10;3.17;;;1.38;;
38262;SDS011;24054;50.128;19.730;2024-02-23T14:52:37;3.58;;;1.70;;